KPOU/POU METAR and TAF weather

Enter ICAO airport designator
Station Type Date Time Source
KPOU METAR 2022/01/25 03:53 UTC NOAA

KPOU 250353Z AUTO 11003KT 4SM BR SCT042 OVC060 M03/M04 A2985 RMK AO2 SNE37 SLP106 P0000 T10281044


Station Type Date Time Source
KPOU Decoded METAR 2022/01/25 03:53 UTC NOAA

POUGHKEEPSIE DUTCHESS CTY, NY, United States (KPOU) 41-38N 073-53W 46M
Jan 24, 2022 - 10:53 PM EST / 2022.01.25 0353 UTC
Wind: from the ESE (110 degrees) at 3 MPH (3 KT):0
Visibility: 4 mile(s):0
Sky conditions: overcast
Weather: mist
Precipitation last hour: A trace
Temperature: 27.0 F (-2.8 C)
Dew Point: 24.1 F (-4.4 C)
Relative Humidity: 88%
Pressure (altimeter): 29.85 in. Hg (1010 hPa)
ob: KPOU 250353Z AUTO 11003KT 4SM BR SCT042 OVC060 M03/M04 A2985 RMK AO2 SNE37 SLP106 P0000 T10281044
cycle: 4

Station Type Date Time Source
KPOU TAF 2022/01/25 02:09 UTC NOAA

TAF
AMD KPOU 250207Z 2502/2524 16005KT 6SM -SHSN OVC040 WS020/20030KT
TEMPO 2502/2506 1SM -SN OVC025
FM250600 19005KT P6SM FEW020 BKN060
FM251500 29008G17KT P6SM SCT040

Example: see airport list